sensor_id;sensor_type;location;lat;lon;timestamp;temperature;humidity
16243;DHT22;11719;51.052;6.982;2024-02-26T00:01:48;12.60;99.90
16243;DHT22;11719;51.052;6.982;2024-02-26T00:04:37;12.80;99.90
16243;DHT22;11719;51.052;6.982;2024-02-26T00:07:06;12.70;99.90
16243;DHT22;11719;51.052;6.982;2024-02-26T00:09:52;12.50;99.90
16243;DHT22;11719;51.052;6.982;2024-02-26T00:12:36;12.50;99.90
16243;DHT22;11719;51.052;6.982;2024-02-26T00:15:07;12.50;99.90
16243;DHT22;11719;51.052;6.982;2024-02-26T00:17:45;12.50;99.90
16243;DHT22;11719;51.052;6.982;2024-02-26T00:20:23;12.30;99.90
16243;DHT22;11719;51.052;6.982;2024-02-26T00:22:57;12.20;99.90
16243;DHT22;11719;51.052;6.982;2024-02-26T00:25:29;12.10;99.90
16243;DHT22;11719;51.052;6.982;2024-02-26T00:28:13;12.10;99.90
16243;DHT22;11719;51.052;6.982;2024-02-26T00:30:44;12.10;99.90
16243;DHT22;11719;51.052;6.982;2024-02-26T00:33:16;12.20;99.90
16243;DHT22;11719;51.052;6.982;2024-02-26T00:35:57;12.30;99.90
16243;DHT22;11719;51.052;6.982;2024-02-26T00:38:29;12.80;99.90
16243;DHT22;11719;51.052;6.982;2024-02-26T00:41:08;13.20;99.90
16243;DHT22;11719;51.052;6.982;2024-02-26T00:43:54;13.50;99.90
16243;DHT22;11719;51.052;6.982;2024-02-26T00:46:25;13.80;99.90
16243;DHT22;11719;51.052;6.982;2024-02-26T00:48:54;14.10;99.90
16243;DHT22;11719;51.052;6.982;2024-02-26T00:51:31;14.40;99.90
16243;DHT22;11719;51.052;6.982;2024-02-26T00:54:23;14.60;99.90
16243;DHT22;11719;51.052;6.982;2024-02-26T00:56:55;14.90;99.90
16243;DHT22;11719;51.052;6.982;2024-02-26T00:59:31;15.00;99.90
16243;DHT22;11719;51.052;6.982;2024-02-26T01:05:25;15.40;99.90
16243;DHT22;11719;51.052;6.982;2024-02-26T01:08:05;15.40;99.90
16243;DHT22;11719;51.052;6.982;2024-02-26T01:11:11;15.40;99.90
16243;DHT22;11719;51.052;6.982;2024-02-26T01:14:10;15.50;99.90
16243;DHT22;11719;51.052;6.982;2024-02-26T01:16:46;15.50;99.90
16243;DHT22;11719;51.052;6.982;2024-02-26T01:19:20;15.50;99.90
16243;DHT22;11719;51.052;6.982;2024-02-26T01:21:54;15.60;99.90
16243;DHT22;11719;51.052;6.982;2024-02-26T01:31:09;15.80;99.90
16243;DHT22;11719;51.052;6.982;2024-02-26T01:33:51;15.90;99.90
16243;DHT22;11719;51.052;6.982;2024-02-26T01:36:31;15.90;99.90
16243;DHT22;11719;51.052;6.982;2024-02-26T01:39:26;15.90;99.90
16243;DHT22;11719;51.052;6.982;2024-02-26T01:42:02;16.00;99.90
16243;DHT22;11719;51.052;6.982;2024-02-26T01:44:43;16.00;99.90
16243;DHT22;11719;51.052;6.982;2024-02-26T01:47:40;16.10;99.90
16243;DHT22;11719;51.052;6.982;2024-02-26T01:50:37;16.10;99.90
16243;DHT22;11719;51.052;6.982;2024-02-26T01:53:30;16.10;99.90
16243;DHT22;11719;51.052;6.982;2024-02-26T01:56:46;16.20;99.90
16243;DHT22;11719;51.052;6.982;2024-02-26T01:59:44;16.10;99.90
16243;DHT22;11719;51.052;6.982;2024-02-26T02:02:24;16.10;99.90
16243;DHT22;11719;51.052;6.982;2024-02-26T02:05:16;16.20;99.90
16243;DHT22;11719;51.052;6.982;2024-02-26T02:08:07;16.20;99.90
16243;DHT22;11719;51.052;6.982;2024-02-26T02:10:43;16.20;99.90
16243;DHT22;11719;51.052;6.982;2024-02-26T02:13:30;16.20;99.90
16243;DHT22;11719;51.052;6.982;2024-02-26T02:16:06;16.20;99.90
16243;DHT22;11719;51.052;6.982;2024-02-26T02:18:36;16.20;99.90
16243;DHT22;11719;51.052;6.982;2024-02-26T02:21:45;16.20;99.90
16243;DHT22;11719;51.052;6.982;2024-02-26T02:24:51;16.20;99.90
16243;DHT22;11719;51.052;6.982;2024-02-26T02:27:31;16.20;99.90
16243;DHT22;11719;51.052;6.982;2024-02-26T02:33:19;16.20;99.90
16243;DHT22;11719;51.052;6.982;2024-02-26T02:36:35;16.20;99.90
16243;DHT22;11719;51.052;6.982;2024-02-26T02:40:11;16.20;99.90
16243;DHT22;11719;51.052;6.982;2024-02-26T02:43:20;16.20;99.90
16243;DHT22;11719;51.052;6.982;2024-02-26T02:46:13;16.20;99.90
16243;DHT22;11719;51.052;6.982;2024-02-26T02:48:53;16.20;99.90
16243;DHT22;11719;51.052;6.982;2024-02-26T02:51:18;16.20;99.90
16243;DHT22;11719;51.052;6.982;2024-02-26T02:53:44;16.20;99.90
16243;DHT22;11719;51.052;6.982;2024-02-26T02:56:10;16.20;99.90
16243;DHT22;11719;51.052;6.982;2024-02-26T02:58:36;16.30;99.90
16243;DHT22;11719;51.052;6.982;2024-02-26T03:01:08;16.30;99.90
16243;DHT22;11719;51.052;6.982;2024-02-26T03:03:43;16.20;99.90
16243;DHT22;11719;51.052;6.982;2024-02-26T03:06:08;16.20;99.90
16243;DHT22;11719;51.052;6.982;2024-02-26T03:09:01;16.20;99.90
16243;DHT22;11719;51.052;6.982;2024-02-26T03:11:31;16.30;99.90
16243;DHT22;11719;51.052;6.982;2024-02-26T03:13:59;16.30;99.90
16243;DHT22;11719;51.052;6.982;2024-02-26T03:16:42;16.30;99.90
16243;DHT22;11719;51.052;6.982;2024-02-26T03:19:07;16.20;99.90
16243;DHT22;11719;51.052;6.982;2024-02-26T03:21:38;16.20;99.90
16243;DHT22;11719;51.052;6.982;2024-02-26T03:24:07;16.20;99.90
16243;DHT22;11719;51.052;6.982;2024-02-26T03:26:49;16.20;99.90
16243;DHT22;11719;51.052;6.982;2024-02-26T03:29:16;16.20;99.90
16243;DHT22;11719;51.052;6.982;2024-02-26T03:31:42;16.20;99.90
16243;DHT22;11719;51.052;6.982;2024-02-26T03:34:08;16.20;99.90
16243;DHT22;11719;51.052;6.982;2024-02-26T03:36:34;16.20;99.90
16243;DHT22;11719;51.052;6.982;2024-02-26T03:39:00;16.30;99.90
16243;DHT22;11719;51.052;6.982;2024-02-26T03:41:43;16.30;99.90
16243;DHT22;11719;51.052;6.982;2024-02-26T03:44:09;16.30;99.90
16243;DHT22;11719;51.052;6.982;2024-02-26T03:46:35;16.20;99.90
16243;DHT22;11719;51.052;6.982;2024-02-26T03:49:13;16.20;99.90
16243;DHT22;11719;51.052;6.982;2024-02-26T03:51:39;16.20;99.90
16243;DHT22;11719;51.052;6.982;2024-02-26T03:54:05;16.10;99.90
16243;DHT22;11719;51.052;6.982;2024-02-26T03:56:36;16.10;99.90
16243;DHT22;11719;51.052;6.982;2024-02-26T03:59:01;16.10;99.90
16243;DHT22;11719;51.052;6.982;2024-02-26T04:01:28;16.10;99.90
16243;DHT22;11719;51.052;6.982;2024-02-26T04:03:55;16.10;99.90
16243;DHT22;11719;51.052;6.982;2024-02-26T04:06:20;16.10;99.90
16243;DHT22;11719;51.052;6.982;2024-02-26T04:08:48;16.10;99.90
16243;DHT22;11719;51.052;6.982;2024-02-26T04:11:14;16.20;99.90
16243;DHT22;11719;51.052;6.982;2024-02-26T04:13:43;16.00;99.90
16243;DHT22;11719;51.052;6.982;2024-02-26T04:16:16;15.90;99.90
16243;DHT22;11719;51.052;6.982;2024-02-26T04:18:45;16.00;99.90
16243;DHT22;11719;51.052;6.982;2024-02-26T04:21:19;15.90;99.90
16243;DHT22;11719;51.052;6.982;2024-02-26T04:23:48;15.80;99.90
16243;DHT22;11719;51.052;6.982;2024-02-26T04:26:30;15.50;99.90
16243;DHT22;11719;51.052;6.982;2024-02-26T04:28:55;15.40;99.90
16243;DHT22;11719;51.052;6.982;2024-02-26T04:31:27;15.30;99.90
16243;DHT22;11719;51.052;6.982;2024-02-26T04:33:56;15.10;99.90
16243;DHT22;11719;51.052;6.982;2024-02-26T04:36:25;15.20;99.90
16243;DHT22;11719;51.052;6.982;2024-02-26T04:38:54;15.50;99.90
16243;DHT22;11719;51.052;6.982;2024-02-26T04:41:32;15.60;99.90
16243;DHT22;11719;51.052;6.982;2024-02-26T04:44:11;15.40;99.90
16243;DHT22;11719;51.052;6.982;2024-02-26T04:46:45;15.20;99.90
16243;DHT22;11719;51.052;6.982;2024-02-26T04:49:14;15.10;99.90
16243;DHT22;11719;51.052;6.982;2024-02-26T04:51:42;15.10;99.90
16243;DHT22;11719;51.052;6.982;2024-02-26T04:54:14;15.30;99.90
16243;DHT22;11719;51.052;6.982;2024-02-26T04:56:53;15.40;99.90
16243;DHT22;11719;51.052;6.982;2024-02-26T04:59:18;15.40;99.90
16243;DHT22;11719;51.052;6.982;2024-02-26T05:01:51;15.40;99.90
16243;DHT22;11719;51.052;6.982;2024-02-26T05:04:27;15.40;99.90
16243;DHT22;11719;51.052;6.982;2024-02-26T05:07:15;15.50;99.90
16243;DHT22;11719;51.052;6.982;2024-02-26T05:09:46;15.60;99.90
16243;DHT22;11719;51.052;6.982;2024-02-26T05:12:21;15.60;99.90
16243;DHT22;11719;51.052;6.982;2024-02-26T05:14:50;15.40;99.90
16243;DHT22;11719;51.052;6.982;2024-02-26T05:17:18;15.40;99.90
16243;DHT22;11719;51.052;6.982;2024-02-26T05:19:44;15.50;99.90
16243;DHT22;11719;51.052;6.982;2024-02-26T05:22:10;15.50;99.90
16243;DHT22;11719;51.052;6.982;2024-02-26T05:24:37;15.60;99.90
16243;DHT22;11719;51.052;6.982;2024-02-26T05:27:05;15.50;99.90
16243;DHT22;11719;51.052;6.982;2024-02-26T05:29:31;15.20;99.90
16243;DHT22;11719;51.052;6.982;2024-02-26T05:32:08;15.00;99.90
16243;DHT22;11719;51.052;6.982;2024-02-26T05:34:37;15.10;99.90
16243;DHT22;11719;51.052;6.982;2024-02-26T05:37:16;15.20;99.90
16243;DHT22;11719;51.052;6.982;2024-02-26T05:39:57;15.10;99.90
16243;DHT22;11719;51.052;6.982;2024-02-26T05:42:32;15.00;99.90
16243;DHT22;11719;51.052;6.982;2024-02-26T05:44:58;14.90;99.90
16243;DHT22;11719;51.052;6.982;2024-02-26T05:47:27;14.90;99.90
16243;DHT22;11719;51.052;6.982;2024-02-26T05:50:05;14.90;99.90
16243;DHT22;11719;51.052;6.982;2024-02-26T05:52:31;14.90;99.90
16243;DHT22;11719;51.052;6.982;2024-02-26T05:55:10;15.00;99.90
16243;DHT22;11719;51.052;6.982;2024-02-26T05:57:43;14.90;99.90
16243;DHT22;11719;51.052;6.982;2024-02-26T06:00:12;14.80;99.90
16243;DHT22;11719;51.052;6.982;2024-02-26T06:02:48;14.80;99.90
16243;DHT22;11719;51.052;6.982;2024-02-26T06:05:14;14.60;99.90
16243;DHT22;11719;51.052;6.982;2024-02-26T06:07:43;14.60;99.90
16243;DHT22;11719;51.052;6.982;2024-02-26T06:10:09;14.60;99.90
16243;DHT22;11719;51.052;6.982;2024-02-26T06:12:35;14.70;99.90
16243;DHT22;11719;51.052;6.982;2024-02-26T06:15:03;14.70;99.90
16243;DHT22;11719;51.052;6.982;2024-02-26T06:17:34;14.80;99.90
16243;DHT22;11719;51.052;6.982;2024-02-26T06:20:00;14.80;99.90
16243;DHT22;11719;51.052;6.982;2024-02-26T06:22:43;14.50;99.90
16243;DHT22;11719;51.052;6.982;2024-02-26T06:25:10;14.30;99.90
16243;DHT22;11719;51.052;6.982;2024-02-26T06:27:40;14.30;99.90
16243;DHT22;11719;51.052;6.982;2024-02-26T06:30:15;14.40;99.90
16243;DHT22;11719;51.052;6.982;2024-02-26T06:33:06;14.30;99.90
16243;DHT22;11719;51.052;6.982;2024-02-26T06:35:52;14.40;99.90
16243;DHT22;11719;51.052;6.982;2024-02-26T06:38:22;14.50;99.90
16243;DHT22;11719;51.052;6.982;2024-02-26T06:40:48;14.70;99.90
16243;DHT22;11719;51.052;6.982;2024-02-26T06:43:21;14.90;99.90
16243;DHT22;11719;51.052;6.982;2024-02-26T06:45:47;15.20;99.90
16243;DHT22;11719;51.052;6.982;2024-02-26T06:48:39;15.30;99.90
16243;DHT22;11719;51.052;6.982;2024-02-26T06:51:08;15.40;99.90
16243;DHT22;11719;51.052;6.982;2024-02-26T06:53:34;15.60;99.90
16243;DHT22;11719;51.052;6.982;2024-02-26T06:56:09;15.70;99.90
16243;DHT22;11719;51.052;6.982;2024-02-26T06:58:35;15.80;99.90
16243;DHT22;11719;51.052;6.982;2024-02-26T07:01:00;15.90;99.90
16243;DHT22;11719;51.052;6.982;2024-02-26T07:03:26;15.90;99.90
16243;DHT22;11719;51.052;6.982;2024-02-26T07:05:52;16.00;99.90
16243;DHT22;11719;51.052;6.982;2024-02-26T07:08:18;16.00;99.90
16243;DHT22;11719;51.052;6.982;2024-02-26T07:10:44;16.00;99.90
16243;DHT22;11719;51.052;6.982;2024-02-26T07:13:10;16.00;99.90
16243;DHT22;11719;51.052;6.982;2024-02-26T07:16:05;16.00;99.90
16243;DHT22;11719;51.052;6.982;2024-02-26T07:18:31;16.10;99.90
16243;DHT22;11719;51.052;6.982;2024-02-26T07:20:56;16.10;99.90
16243;DHT22;11719;51.052;6.982;2024-02-26T07:23:27;16.10;99.90
16243;DHT22;11719;51.052;6.982;2024-02-26T07:26:30;16.10;99.90
16243;DHT22;11719;51.052;6.982;2024-02-26T07:28:58;16.20;99.90
16243;DHT22;11719;51.052;6.982;2024-02-26T07:31:24;16.20;99.90
16243;DHT22;11719;51.052;6.982;2024-02-26T07:33:57;16.20;99.90
16243;DHT22;11719;51.052;6.982;2024-02-26T07:36:27;16.20;99.90
16243;DHT22;11719;51.052;6.982;2024-02-26T07:38:59;16.20;99.90
16243;DHT22;11719;51.052;6.982;2024-02-26T07:41:36;16.20;99.90
16243;DHT22;11719;51.052;6.982;2024-02-26T07:44:11;16.20;99.90
16243;DHT22;11719;51.052;6.982;2024-02-26T07:46:44;16.20;99.90
16243;DHT22;11719;51.052;6.982;2024-02-26T07:49:10;16.20;99.90
16243;DHT22;11719;51.052;6.982;2024-02-26T07:51:40;16.20;99.90
16243;DHT22;11719;51.052;6.982;2024-02-26T07:54:10;16.20;99.90
16243;DHT22;11719;51.052;6.982;2024-02-26T07:56:39;16.20;99.90
16243;DHT22;11719;51.052;6.982;2024-02-26T07:59:05;16.30;99.90
16243;DHT22;11719;51.052;6.982;2024-02-26T08:01:34;16.30;99.90
16243;DHT22;11719;51.052;6.982;2024-02-26T08:04:00;16.30;99.90
16243;DHT22;11719;51.052;6.982;2024-02-26T08:06:28;16.30;99.90
16243;DHT22;11719;51.052;6.982;2024-02-26T08:08:54;16.30;99.90
16243;DHT22;11719;51.052;6.982;2024-02-26T08:11:41;16.30;99.90
16243;DHT22;11719;51.052;6.982;2024-02-26T08:14:13;16.30;99.90
16243;DHT22;11719;51.052;6.982;2024-02-26T08:16:45;16.30;99.90
16243;DHT22;11719;51.052;6.982;2024-02-26T08:19:56;16.30;99.90
16243;DHT22;11719;51.052;6.982;2024-02-26T08:26:03;16.30;99.90
16243;DHT22;11719;51.052;6.982;2024-02-26T08:29:10;16.30;99.90
16243;DHT22;11719;51.052;6.982;2024-02-26T08:31:56;16.30;99.90
16243;DHT22;11719;51.052;6.982;2024-02-26T08:35:07;16.30;99.90
16243;DHT22;11719;51.052;6.982;2024-02-26T08:38:05;16.30;99.90
16243;DHT22;11719;51.052;6.982;2024-02-26T08:40:34;16.30;99.90
16243;DHT22;11719;51.052;6.982;2024-02-26T08:43:02;16.30;99.90
16243;DHT22;11719;51.052;6.982;2024-02-26T08:45:31;16.30;99.90
16243;DHT22;11719;51.052;6.982;2024-02-26T08:48:15;16.30;99.90
16243;DHT22;11719;51.052;6.982;2024-02-26T08:50:45;16.30;99.90
16243;DHT22;11719;51.052;6.982;2024-02-26T08:53:42;16.30;99.90
16243;DHT22;11719;51.052;6.982;2024-02-26T08:56:22;16.30;99.90
16243;DHT22;11719;51.052;6.982;2024-02-26T08:59:11;16.30;99.90
16243;DHT22;11719;51.052;6.982;2024-02-26T09:01:40;16.30;99.90
16243;DHT22;11719;51.052;6.982;2024-02-26T09:06:59;16.30;99.90
16243;DHT22;11719;51.052;6.982;2024-02-26T09:09:25;16.30;99.90
16243;DHT22;11719;51.052;6.982;2024-02-26T09:11:56;16.30;99.90
16243;DHT22;11719;51.052;6.982;2024-02-26T09:14:22;16.30;99.90
16243;DHT22;11719;51.052;6.982;2024-02-26T09:17:02;16.30;99.90
16243;DHT22;11719;51.052;6.982;2024-02-26T09:19:28;16.30;99.90
16243;DHT22;11719;51.052;6.982;2024-02-26T09:22:00;16.30;99.90
16243;DHT22;11719;51.052;6.982;2024-02-26T09:24:29;16.30;99.90
16243;DHT22;11719;51.052;6.982;2024-02-26T09:27:03;16.30;99.90
16243;DHT22;11719;51.052;6.982;2024-02-26T09:29:42;16.30;99.90
16243;DHT22;11719;51.052;6.982;2024-02-26T09:32:14;16.30;99.90
16243;DHT22;11719;51.052;6.982;2024-02-26T09:34:45;16.30;99.90
16243;DHT22;11719;51.052;6.982;2024-02-26T09:37:19;16.30;99.90
16243;DHT22;11719;51.052;6.982;2024-02-26T09:39:56;16.30;99.90
16243;DHT22;11719;51.052;6.982;2024-02-26T09:42:36;16.30;99.90
16243;DHT22;11719;51.052;6.982;2024-02-26T09:45:24;16.30;99.90
16243;DHT22;11719;51.052;6.982;2024-02-26T09:47:58;16.40;99.90
16243;DHT22;11719;51.052;6.982;2024-02-26T09:50:44;16.30;99.90
16243;DHT22;11719;51.052;6.982;2024-02-26T09:53:22;16.20;99.90
16243;DHT22;11719;51.052;6.982;2024-02-26T09:55:53;16.20;99.90
16243;DHT22;11719;51.052;6.982;2024-02-26T09:58:37;16.20;99.90
16243;DHT22;11719;51.052;6.982;2024-02-26T10:01:19;16.20;99.90
16243;DHT22;11719;51.052;6.982;2024-02-26T10:04:03;16.30;99.90
16243;DHT22;11719;51.052;6.982;2024-02-26T10:06:38;16.30;99.90
16243;DHT22;11719;51.052;6.982;2024-02-26T10:09:17;16.30;99.90
16243;DHT22;11719;51.052;6.982;2024-02-26T10:11:57;16.30;99.90
16243;DHT22;11719;51.052;6.982;2024-02-26T10:14:50;16.30;99.90
16243;DHT22;11719;51.052;6.982;2024-02-26T10:17:22;16.30;99.90
16243;DHT22;11719;51.052;6.982;2024-02-26T10:20:17;16.30;99.90
16243;DHT22;11719;51.052;6.982;2024-02-26T10:23:07;16.30;99.90
16243;DHT22;11719;51.052;6.982;2024-02-26T10:25:40;16.30;99.90
16243;DHT22;11719;51.052;6.982;2024-02-26T10:28:45;16.30;99.90
16243;DHT22;11719;51.052;6.982;2024-02-26T10:31:33;16.30;99.90
16243;DHT22;11719;51.052;6.982;2024-02-26T10:34:02;16.30;99.90
16243;DHT22;11719;51.052;6.982;2024-02-26T10:36:36;16.30;99.90
16243;DHT22;11719;51.052;6.982;2024-02-26T10:39:22;16.30;99.90
16243;DHT22;11719;51.052;6.982;2024-02-26T10:41:50;16.30;99.90
16243;DHT22;11719;51.052;6.982;2024-02-26T10:44:16;16.30;99.90
16243;DHT22;11719;51.052;6.982;2024-02-26T10:46:42;16.30;99.90
16243;DHT22;11719;51.052;6.982;2024-02-26T10:49:15;16.30;99.90
16243;DHT22;11719;51.052;6.982;2024-02-26T10:51:54;16.40;99.90
16243;DHT22;11719;51.052;6.982;2024-02-26T10:54:25;16.40;99.90
16243;DHT22;11719;51.052;6.982;2024-02-26T10:56:56;16.40;99.90
16243;DHT22;11719;51.052;6.982;2024-02-26T10:59:23;16.40;99.90
16243;DHT22;11719;51.052;6.982;2024-02-26T11:01:49;16.40;99.90
16243;DHT22;11719;51.052;6.982;2024-02-26T11:04:21;16.40;99.90
16243;DHT22;11719;51.052;6.982;2024-02-26T11:06:49;16.40;99.90
16243;DHT22;11719;51.052;6.982;2024-02-26T11:09:16;16.40;99.90
16243;DHT22;11719;51.052;6.982;2024-02-26T11:11:43;16.40;99.90
16243;DHT22;11719;51.052;6.982;2024-02-26T11:14:09;16.40;99.90
16243;DHT22;11719;51.052;6.982;2024-02-26T11:16:44;16.40;99.90
16243;DHT22;11719;51.052;6.982;2024-02-26T11:19:10;16.40;99.90
16243;DHT22;11719;51.052;6.982;2024-02-26T11:21:39;16.40;99.90
16243;DHT22;11719;51.052;6.982;2024-02-26T11:24:23;16.30;99.90
16243;DHT22;11719;51.052;6.982;2024-02-26T11:27:09;16.40;99.90
16243;DHT22;11719;51.052;6.982;2024-02-26T11:29:43;16.40;99.90
16243;DHT22;11719;51.052;6.982;2024-02-26T11:32:18;16.40;99.90
16243;DHT22;11719;51.052;6.982;2024-02-26T11:34:45;16.40;99.90
16243;DHT22;11719;51.052;6.982;2024-02-26T11:37:16;16.40;99.90
16243;DHT22;11719;51.052;6.982;2024-02-26T11:39:43;16.40;99.90
16243;DHT22;11719;51.052;6.982;2024-02-26T11:42:14;16.40;99.90
16243;DHT22;11719;51.052;6.982;2024-02-26T11:44:59;16.40;99.90
16243;DHT22;11719;51.052;6.982;2024-02-26T11:47:27;16.40;99.90
16243;DHT22;11719;51.052;6.982;2024-02-26T11:49:53;16.40;99.90
16243;DHT22;11719;51.052;6.982;2024-02-26T11:52:19;16.40;99.90
16243;DHT22;11719;51.052;6.982;2024-02-26T11:54:47;16.40;99.90
16243;DHT22;11719;51.052;6.982;2024-02-26T11:57:28;16.30;99.90
16243;DHT22;11719;51.052;6.982;2024-02-26T12:00:13;16.30;99.90
16243;DHT22;11719;51.052;6.982;2024-02-26T12:02:49;16.30;99.90
16243;DHT22;11719;51.052;6.982;2024-02-26T12:05:24;16.30;99.90
16243;DHT22;11719;51.052;6.982;2024-02-26T12:07:53;16.30;99.90
16243;DHT22;11719;51.052;6.982;2024-02-26T12:10:37;16.20;99.90
16243;DHT22;11719;51.052;6.982;2024-02-26T12:13:12;16.20;99.90
16243;DHT22;11719;51.052;6.982;2024-02-26T12:18:22;16.00;99.90
16243;DHT22;11719;51.052;6.982;2024-02-26T12:21:01;15.90;99.90
16243;DHT22;11719;51.052;6.982;2024-02-26T12:23:42;15.90;99.90
16243;DHT22;11719;51.052;6.982;2024-02-26T12:26:09;16.00;99.90
16243;DHT22;11719;51.052;6.982;2024-02-26T12:28:45;16.00;99.90
16243;DHT22;11719;51.052;6.982;2024-02-26T12:31:15;16.00;99.90
16243;DHT22;11719;51.052;6.982;2024-02-26T12:33:51;16.10;99.90
16243;DHT22;11719;51.052;6.982;2024-02-26T12:36:35;16.00;99.90
16243;DHT22;11719;51.052;6.982;2024-02-26T12:39:02;16.00;99.90
16243;DHT22;11719;51.052;6.982;2024-02-26T12:41:39;16.00;99.90
16243;DHT22;11719;51.052;6.982;2024-02-26T12:44:08;16.10;99.90
16243;DHT22;11719;51.052;6.982;2024-02-26T12:46:36;16.00;99.90
16243;DHT22;11719;51.052;6.982;2024-02-26T12:49:02;16.10;99.90
16243;DHT22;11719;51.052;6.982;2024-02-26T12:51:31;16.00;99.90
16243;DHT22;11719;51.052;6.982;2024-02-26T12:54:06;16.00;99.90
16243;DHT22;11719;51.052;6.982;2024-02-26T12:56:37;16.00;99.90
16243;DHT22;11719;51.052;6.982;2024-02-26T12:59:03;15.80;99.90
16243;DHT22;11719;51.052;6.982;2024-02-26T13:01:36;15.80;99.90
16243;DHT22;11719;51.052;6.982;2024-02-26T13:04:07;15.90;99.90
16243;DHT22;11719;51.052;6.982;2024-02-26T13:06:39;16.00;99.90
16243;DHT22;11719;51.052;6.982;2024-02-26T13:09:05;16.00;99.90
16243;DHT22;11719;51.052;6.982;2024-02-26T13:11:31;16.10;99.90
16243;DHT22;11719;51.052;6.982;2024-02-26T13:13:58;16.10;99.90
16243;DHT22;11719;51.052;6.982;2024-02-26T13:16:25;16.10;99.90
16243;DHT22;11719;51.052;6.982;2024-02-26T13:18:53;16.20;99.90
16243;DHT22;11719;51.052;6.982;2024-02-26T13:21:19;16.20;99.90
16243;DHT22;11719;51.052;6.982;2024-02-26T13:23:53;16.20;99.90
16243;DHT22;11719;51.052;6.982;2024-02-26T13:26:24;16.20;99.90
16243;DHT22;11719;51.052;6.982;2024-02-26T13:29:02;16.20;99.90
16243;DHT22;11719;51.052;6.982;2024-02-26T13:31:40;16.30;99.90
16243;DHT22;11719;51.052;6.982;2024-02-26T13:34:06;16.30;99.90
16243;DHT22;11719;51.052;6.982;2024-02-26T13:36:31;16.20;99.90
16243;DHT22;11719;51.052;6.982;2024-02-26T13:39:05;16.20;99.90
16243;DHT22;11719;51.052;6.982;2024-02-26T13:41:32;16.30;99.90
16243;DHT22;11719;51.052;6.982;2024-02-26T13:43:58;16.30;99.90
16243;DHT22;11719;51.052;6.982;2024-02-26T13:46:24;16.30;99.90
16243;DHT22;11719;51.052;6.982;2024-02-26T13:48:50;16.20;99.90
16243;DHT22;11719;51.052;6.982;2024-02-26T13:51:18;16.10;99.90
16243;DHT22;11719;51.052;6.982;2024-02-26T13:53:44;16.10;99.90
16243;DHT22;11719;51.052;6.982;2024-02-26T13:56:10;15.80;99.90
16243;DHT22;11719;51.052;6.982;2024-02-26T13:58:37;15.60;99.90
16243;DHT22;11719;51.052;6.982;2024-02-26T14:01:11;15.20;99.90
16243;DHT22;11719;51.052;6.982;2024-02-26T14:03:37;15.20;99.90
16243;DHT22;11719;51.052;6.982;2024-02-26T14:06:10;15.40;99.90
16243;DHT22;11719;51.052;6.982;2024-02-26T14:08:46;15.20;99.90
16243;DHT22;11719;51.052;6.982;2024-02-26T14:11:12;15.40;99.90
16243;DHT22;11719;51.052;6.982;2024-02-26T14:13:38;15.20;99.90
16243;DHT22;11719;51.052;6.982;2024-02-26T14:16:04;15.20;99.90
16243;DHT22;11719;51.052;6.982;2024-02-26T14:18:30;15.10;99.90
16243;DHT22;11719;51.052;6.982;2024-02-26T14:21:00;15.10;99.90
16243;DHT22;11719;51.052;6.982;2024-02-26T14:23:26;14.90;99.90
16243;DHT22;11719;51.052;6.982;2024-02-26T14:25:52;14.60;99.90
16243;DHT22;11719;51.052;6.982;2024-02-26T14:28:20;14.10;99.90
16243;DHT22;11719;51.052;6.982;2024-02-26T14:30:53;13.80;99.90
16243;DHT22;11719;51.052;6.982;2024-02-26T14:33:24;13.50;99.90
16243;DHT22;11719;51.052;6.982;2024-02-26T14:35:50;13.30;99.90
16243;DHT22;11719;51.052;6.982;2024-02-26T14:38:18;13.10;99.90
16243;DHT22;11719;51.052;6.982;2024-02-26T14:40:58;13.00;99.90
16243;DHT22;11719;51.052;6.982;2024-02-26T14:43:29;12.90;99.90
16243;DHT22;11719;51.052;6.982;2024-02-26T14:45:57;12.80;99.90
16243;DHT22;11719;51.052;6.982;2024-02-26T14:48:32;12.70;99.90
16243;DHT22;11719;51.052;6.982;2024-02-26T14:51:02;12.70;99.90
16243;DHT22;11719;51.052;6.982;2024-02-26T14:53:37;12.60;99.90
16243;DHT22;11719;51.052;6.982;2024-02-26T14:58:30;12.40;99.90
16243;DHT22;11719;51.052;6.982;2024-02-26T15:01:10;12.40;99.90
16243;DHT22;11719;51.052;6.982;2024-02-26T15:03:46;12.30;99.90
16243;DHT22;11719;51.052;6.982;2024-02-26T15:06:24;12.30;99.90
16243;DHT22;11719;51.052;6.982;2024-02-26T15:08:51;12.30;99.90
16243;DHT22;11719;51.052;6.982;2024-02-26T15:11:17;12.20;99.90
16243;DHT22;11719;51.052;6.982;2024-02-26T15:13:46;12.30;99.90
16243;DHT22;11719;51.052;6.982;2024-02-26T15:16:21;12.30;99.90
16243;DHT22;11719;51.052;6.982;2024-02-26T15:18:58;12.20;99.90
16243;DHT22;11719;51.052;6.982;2024-02-26T15:21:24;12.10;99.90
16243;DHT22;11719;51.052;6.982;2024-02-26T15:23:52;12.10;99.90
16243;DHT22;11719;51.052;6.982;2024-02-26T15:26:26;12.10;99.90
16243;DHT22;11719;51.052;6.982;2024-02-26T15:28:52;12.10;99.90
16243;DHT22;11719;51.052;6.982;2024-02-26T15:31:37;12.00;99.90
16243;DHT22;11719;51.052;6.982;2024-02-26T15:34:06;12.00;99.90
16243;DHT22;11719;51.052;6.982;2024-02-26T15:36:46;11.90;99.90
16243;DHT22;11719;51.052;6.982;2024-02-26T15:39:14;11.90;99.90
16243;DHT22;11719;51.052;6.982;2024-02-26T15:41:40;11.90;99.90
16243;DHT22;11719;51.052;6.982;2024-02-26T15:44:06;12.00;99.90
16243;DHT22;11719;51.052;6.982;2024-02-26T15:46:42;12.00;99.90
16243;DHT22;11719;51.052;6.982;2024-02-26T15:49:10;12.40;99.90
16243;DHT22;11719;51.052;6.982;2024-02-26T15:51:36;12.40;99.90
16243;DHT22;11719;51.052;6.982;2024-02-26T15:54:02;12.40;99.90
16243;DHT22;11719;51.052;6.982;2024-02-26T15:56:28;12.60;99.90
16243;DHT22;11719;51.052;6.982;2024-02-26T15:58:56;13.20;99.90
16243;DHT22;11719;51.052;6.982;2024-02-26T16:01:22;13.30;99.90
16243;DHT22;11719;51.052;6.982;2024-02-26T16:03:49;13.50;99.90
16243;DHT22;11719;51.052;6.982;2024-02-26T16:06:41;13.60;99.90
16243;DHT22;11719;51.052;6.982;2024-02-26T16:09:16;13.50;99.90
16243;DHT22;11719;51.052;6.982;2024-02-26T16:11:42;13.30;99.90
16243;DHT22;11719;51.052;6.982;2024-02-26T16:17:31;13.10;99.90
16243;DHT22;11719;51.052;6.982;2024-02-26T16:20:06;12.90;99.90
16243;DHT22;11719;51.052;6.982;2024-02-26T16:22:46;12.80;99.90
16243;DHT22;11719;51.052;6.982;2024-02-26T16:25:25;12.70;99.90
16243;DHT22;11719;51.052;6.982;2024-02-26T16:27:57;12.50;99.90
16243;DHT22;11719;51.052;6.982;2024-02-26T16:30:43;12.50;99.90
16243;DHT22;11719;51.052;6.982;2024-02-26T16:33:18;12.40;99.90
16243;DHT22;11719;51.052;6.982;2024-02-26T16:35:49;12.40;99.90
16243;DHT22;11719;51.052;6.982;2024-02-26T16:38:22;12.40;99.90
16243;DHT22;11719;51.052;6.982;2024-02-26T16:40:55;12.30;99.90
16243;DHT22;11719;51.052;6.982;2024-02-26T16:43:35;12.30;99.90